createdAt,value
2018-06-21T00:01:31.933Z,101023.12
2018-06-21T00:04:00.638Z,101023.34
2018-06-21T00:06:29.629Z,101017.61
2018-06-21T00:08:58.555Z,101016.25
2018-06-21T00:11:27.514Z,101010.77
2018-06-21T00:13:56.114Z,101005.84
2018-06-21T00:16:24.779Z,101002.25
2018-06-21T00:18:53.722Z,100995.16
2018-06-21T00:21:22.700Z,100994.19
2018-06-21T00:23:52.219Z,100989.55
2018-06-21T00:26:20.845Z,100988.38
2018-06-21T00:28:49.759Z,100981.52
2018-06-21T00:31:18.583Z,100979.55
2018-06-21T00:33:47.563Z,100983.36
2018-06-21T00:36:16.401Z,100977.98
2018-06-21T00:38:45.322Z,100974.14
2018-06-21T00:41:14.537Z,100973.85
2018-06-21T00:43:43.960Z,100965.41
2018-06-21T00:46:12.527Z,100958.67
2018-06-21T00:48:42.133Z,100953.77
2018-06-21T00:51:12.508Z,100955.66
2018-06-21T00:53:41.780Z,100958.30
2018-06-21T00:56:14.692Z,100953.11
2018-06-21T00:58:44.299Z,100956.41
2018-06-21T01:01:13.230Z,100951.75
2018-06-21T01:03:42.117Z,100953.98
2018-06-21T01:06:17.280Z,100947.97
2018-06-21T01:08:46.173Z,100950.69
2018-06-21T01:11:15.040Z,100941.47
2018-06-21T01:13:44.237Z,100941.95
2018-06-21T01:16:12.915Z,100939.45
2018-06-21T01:18:41.487Z,100938.05
2018-06-21T01:21:10.077Z,100933.66
2018-06-21T01:23:38.743Z,100931.50
2018-06-21T01:26:07.682Z,100927.57
2018-06-21T01:28:36.358Z,100919.59
2018-06-21T01:31:05.253Z,100924.67
2018-06-21T01:33:34.234Z,100919.16
2018-06-21T01:36:03.150Z,100922.06
2018-06-21T01:38:38.132Z,100915.37
2018-06-21T01:41:07.081Z,100909.69
2018-06-21T01:43:35.662Z,100909.02
2018-06-21T01:46:04.306Z,100911.56
2018-06-21T01:48:34.461Z,100906.91
2018-06-21T01:51:04.271Z,100901.66
2018-06-21T01:53:34.785Z,100904.52
2018-06-21T01:56:03.350Z,100896.44
2018-06-21T01:58:31.945Z,100892.98
2018-06-21T02:01:00.582Z,100891.73
2018-06-21T02:03:30.021Z,100899.08
2018-06-21T02:06:00.368Z,100888.44
2018-06-21T02:08:30.786Z,100887.85
2018-06-21T02:10:59.666Z,100888.91
2018-06-21T02:13:30.638Z,100886.59
2018-06-21T02:15:59.940Z,100883.88
2018-06-21T02:18:29.978Z,100885.06
2018-06-21T02:20:59.055Z,100886.12
2018-06-21T02:23:28.477Z,100882.82
2018-06-21T02:25:58.336Z,100879.05
2018-06-21T02:28:28.800Z,100870.33
2018-06-21T02:30:58.601Z,100871.59
2018-06-21T02:33:29.210Z,100864.22
2018-06-21T02:35:58.374Z,100860.80
2018-06-21T02:38:28.480Z,100855.50
2018-06-21T02:40:57.380Z,100857.45
2018-06-21T02:43:25.982Z,100855.91
2018-06-21T02:45:55.045Z,100852.94
2018-06-21T02:48:23.628Z,100850.96
2018-06-21T02:50:52.247Z,100842.06
2018-06-21T02:53:21.125Z,100841.77
2018-06-21T02:55:50.319Z,100834.37
2018-06-21T02:58:19.259Z,100830.39
2018-06-21T03:00:47.925Z,100821.91
2018-06-21T03:03:17.690Z,100819.69
2018-06-21T03:05:47.415Z,100820.45
2018-06-21T03:08:16.300Z,100821.05
2018-06-21T03:10:45.232Z,100819.98
2018-06-21T03:13:14.143Z,100818.51
2018-06-21T03:15:43.021Z,100818.04
2018-06-21T03:18:11.933Z,100809.02
2018-06-21T03:20:40.766Z,100809.32
2018-06-21T03:23:09.667Z,100810.97
2018-06-21T03:25:38.633Z,100797.36
2018-06-21T03:28:07.513Z,100797.59
2018-06-21T03:30:36.126Z,100799.09
2018-06-21T03:33:04.725Z,100800.52
2018-06-21T03:35:33.337Z,100800.42
2018-06-21T03:38:01.981Z,100790.05
2018-06-21T03:40:31.013Z,100791.17
2018-06-21T03:42:59.708Z,100789.14
2018-06-21T03:45:28.329Z,100784.34
2018-06-21T03:47:57.270Z,100780.63
2018-06-21T03:50:27.281Z,100778.91
2018-06-21T03:52:56.773Z,100765.19
2018-06-21T03:55:25.387Z,100775.20
2018-06-21T03:57:54.000Z,100775.53
2018-06-21T04:00:23.509Z,100768.87
2018-06-21T04:02:52.204Z,100766.63
2018-06-21T04:05:21.168Z,100769.34
2018-06-21T04:07:55.956Z,100768.07
2018-06-21T04:10:24.959Z,100770.75
2018-06-21T04:12:53.650Z,100775.41
2018-06-21T04:15:22.237Z,100764.56
2018-06-21T04:17:50.923Z,100764.59
2018-06-21T04:20:19.746Z,100770.70
2018-06-21T04:22:48.412Z,100766.98
2018-06-21T04:25:17.023Z,100766.45
2018-06-21T04:27:45.724Z,100759.38
2018-06-21T04:30:14.849Z,100759.09
2018-06-21T04:32:43.759Z,100759.56
2018-06-21T04:35:12.507Z,100755.70
2018-06-21T04:40:09.013Z,100755.01
2018-06-21T04:42:39.147Z,100747.46
2018-06-21T04:45:09.028Z,100750.48
2018-06-21T04:47:38.960Z,100751.82
2018-06-21T04:50:07.941Z,100748.37
2018-06-21T04:52:38.498Z,100748.52
2018-06-21T04:55:07.195Z,100741.91
2018-06-21T04:57:36.122Z,100734.19
2018-06-21T05:00:04.847Z,100725.23
2018-06-21T05:02:33.795Z,100725.46
2018-06-21T05:05:02.674Z,100722.06
2018-06-21T05:07:31.314Z,100716.64
2018-06-21T05:09:59.932Z,100711.31
2018-06-21T05:12:28.643Z,100715.26
2018-06-21T05:14:57.567Z,100707.99
2018-06-21T05:17:26.534Z,100705.92
2018-06-21T05:19:55.465Z,100714.22
2018-06-21T05:22:24.086Z,100726.50
2018-06-21T05:24:53.306Z,100728.72
2018-06-21T05:27:22.557Z,100722.84
2018-06-21T05:29:51.168Z,100725.02
2018-06-21T05:32:20.433Z,100722.06
2018-06-21T05:34:49.744Z,100718.52
2018-06-21T05:37:18.496Z,100714.34
2018-06-21T05:39:47.121Z,100709.02
2018-06-21T05:42:16.009Z,100710.33
2018-06-21T05:44:44.612Z,100702.76
2018-06-21T05:47:13.580Z,100698.89
2018-06-21T05:49:42.476Z,100686.86
2018-06-21T05:52:11.352Z,100686.12
2018-06-21T05:54:40.233Z,100676.27
2018-06-21T05:57:08.854Z,100670.92
2018-06-21T05:59:37.450Z,100676.69
2018-06-21T06:02:06.073Z,100674.19
2018-06-21T06:04:34.687Z,100671.39
2018-06-21T06:07:03.412Z,100663.38
2018-06-21T06:09:32.383Z,100666.39
2018-06-21T06:12:01.558Z,100658.52
2018-06-21T06:14:30.597Z,100651.97
2018-06-21T06:17:00.771Z,100654.44
2018-06-21T06:21:56.987Z,100657.78
2018-06-21T06:24:25.641Z,100645.77
2018-06-21T06:26:54.266Z,100653.04
2018-06-21T06:29:22.997Z,100645.45
2018-06-21T06:31:51.626Z,100636.31
2018-06-21T06:34:20.570Z,100635.80
2018-06-21T06:36:49.200Z,100629.26
2018-06-21T06:39:21.870Z,100631.22
2018-06-21T06:41:51.553Z,100630.67
2018-06-21T06:44:20.338Z,100621.20
2018-06-21T06:46:48.989Z,100615.77
2018-06-21T06:49:17.631Z,100618.20
2018-06-21T06:51:46.416Z,100616.33
2018-06-21T06:54:14.974Z,100617.23
2018-06-21T06:56:43.628Z,100609.15
2018-06-21T06:59:12.591Z,100596.12
2018-06-21T07:01:42.437Z,100593.66
2018-06-21T07:04:11.086Z,100586.39
2018-06-21T07:06:39.749Z,100574.49
2018-06-21T07:09:09.369Z,100583.83
2018-06-21T07:11:38.105Z,100577.83
2018-06-21T07:14:08.070Z,100575.06
2018-06-21T07:16:38.517Z,100563.37
2018-06-21T07:19:07.388Z,100559.56
2018-06-21T07:21:38.680Z,100558.20
2018-06-21T07:24:07.994Z,100557.67
2018-06-21T07:26:37.361Z,100552.25
2018-06-21T07:29:06.262Z,100548.97
2018-06-21T07:31:35.345Z,100537.29
2018-06-21T07:34:04.038Z,100533.73
2018-06-21T07:36:32.924Z,100526.66
2018-06-21T07:39:01.647Z,100511.86
2018-06-21T07:41:30.610Z,100509.13
2018-06-21T07:43:59.256Z,100500.44
2018-06-21T07:46:27.934Z,100494.99
2018-06-21T07:48:56.688Z,100493.33
2018-06-21T07:51:25.317Z,100487.61
2018-06-21T07:53:53.973Z,100481.03
2018-06-21T07:56:22.932Z,100474.98
2018-06-21T07:58:51.565Z,100474.09
2018-06-21T08:01:20.508Z,100469.56
2018-06-21T08:03:49.144Z,100461.73
2018-06-21T08:06:18.196Z,100462.82
2018-06-21T08:08:47.225Z,100461.69
2018-06-21T08:11:16.289Z,100454.00
2018-06-21T08:13:44.980Z,100454.03
2018-06-21T08:16:14.393Z,100447.81
2018-06-21T08:18:42.957Z,100447.80
2018-06-21T08:21:11.780Z,100440.23
2018-06-21T08:23:40.387Z,100438.06
2018-06-21T08:26:09.117Z,100431.23
2018-06-21T08:28:37.838Z,100427.05
2018-06-21T08:31:06.466Z,100419.67
2018-06-21T08:33:35.159Z,100415.98
2018-06-21T08:36:04.072Z,100409.83
2018-06-21T08:38:33.073Z,100404.02
2018-06-21T08:41:02.116Z,100401.30
2018-06-21T08:43:31.036Z,100389.88
2018-06-21T08:45:59.979Z,100393.30
2018-06-21T08:48:29.009Z,100392.37
2018-06-21T08:50:57.632Z,100396.36
2018-06-21T08:53:26.307Z,100393.27
2018-06-21T08:55:55.245Z,100387.21
2018-06-21T08:58:23.979Z,100380.91
2018-06-21T09:00:52.975Z,100375.80
2018-06-21T09:03:22.150Z,100371.73
2018-06-21T09:05:51.196Z,100368.31
2018-06-21T09:08:19.813Z,100359.75
2018-06-21T09:10:48.398Z,100357.47
2018-06-21T09:13:17.328Z,100351.67
2018-06-21T09:15:45.985Z,100342.25
2018-06-21T09:18:14.608Z,100340.64
2018-06-21T09:20:43.200Z,100341.05
2018-06-21T09:23:11.853Z,100328.44
2018-06-21T09:25:40.722Z,100336.59
2018-06-21T09:28:09.317Z,100325.64
2018-06-21T09:30:37.972Z,100322.66
2018-06-21T09:33:06.804Z,100322.02
2018-06-21T09:35:36.231Z,100321.98
2018-06-21T09:38:11.559Z,100314.47
2018-06-21T09:40:45.610Z,100307.33
2018-06-21T09:43:19.598Z,100302.28
2018-06-21T09:45:53.548Z,100281.56
2018-06-21T09:48:27.642Z,100305.86
2018-06-21T09:50:56.580Z,100294.94
2018-06-21T09:53:25.654Z,100288.89
2018-06-21T09:55:55.163Z,100298.42
2018-06-21T09:58:23.818Z,100291.22
2018-06-21T10:00:57.956Z,100279.06
2018-06-21T10:03:26.540Z,100271.78
2018-06-21T10:05:55.645Z,100276.91
2018-06-21T10:08:24.892Z,100272.35
2018-06-21T10:10:53.529Z,100284.28
2018-06-21T10:13:22.279Z,100265.20
2018-06-21T10:15:51.337Z,100264.84
2018-06-21T10:18:19.888Z,100271.66
2018-06-21T10:20:48.543Z,100258.69
2018-06-21T10:23:17.416Z,100264.72
2018-06-21T10:25:46.019Z,100265.66
2018-06-21T10:28:14.968Z,100256.63
2018-06-21T10:30:43.931Z,100262.73
2018-06-21T10:33:12.573Z,100267.72
2018-06-21T10:35:41.815Z,100354.77
2018-06-21T10:38:10.433Z,100389.70
2018-06-21T10:40:39.402Z,100382.13
2018-06-21T10:43:08.485Z,100408.01
2018-06-21T10:45:37.378Z,100430.96
2018-06-21T10:48:06.728Z,100451.63
2018-06-21T10:50:35.646Z,100460.95
2018-06-21T10:53:04.566Z,100501.02
2018-06-21T10:55:33.515Z,100501.25
2018-06-21T10:58:02.447Z,100509.02
2018-06-21T11:00:31.370Z,100548.41
2018-06-21T11:02:59.956Z,100542.97
2018-06-21T11:05:28.556Z,100561.39
2018-06-21T11:07:57.143Z,100535.70
2018-06-21T11:10:25.718Z,100556.68
2018-06-21T11:12:54.330Z,100563.07
2018-06-21T11:15:23.080Z,100573.84
2018-06-21T11:17:52.059Z,100578.09
2018-06-21T11:20:20.676Z,100581.89
2018-06-21T11:22:49.294Z,100579.66
2018-06-21T11:25:18.008Z,100603.25
2018-06-21T11:27:46.709Z,100587.52
2018-06-21T11:30:15.593Z,100597.08
2018-06-21T11:32:44.233Z,100592.16
2018-06-21T11:35:13.015Z,100601.88
2018-06-21T11:37:41.721Z,100607.07
2018-06-21T11:40:10.651Z,100593.31
2018-06-21T11:42:39.613Z,100590.89
2018-06-21T11:45:08.247Z,100587.73
2018-06-21T11:47:37.426Z,100625.81
2018-06-21T11:50:06.233Z,100625.33
2018-06-21T11:52:34.827Z,100625.11
2018-06-21T11:55:03.447Z,100645.42
2018-06-21T11:57:32.637Z,100653.34
2018-06-21T12:00:01.854Z,100665.02
2018-06-21T12:02:30.577Z,100699.25
2018-06-21T12:04:59.574Z,100716.23
2018-06-21T12:07:28.179Z,100708.86
2018-06-21T12:09:56.947Z,100731.44
2018-06-21T12:12:25.598Z,100745.70
2018-06-21T12:14:56.144Z,100738.71
2018-06-21T12:17:25.052Z,100742.80
2018-06-21T12:19:53.702Z,100738.62
2018-06-21T12:22:22.316Z,100733.04
2018-06-21T12:24:51.727Z,100739.78
2018-06-21T12:27:20.327Z,100736.62
2018-06-21T12:29:48.975Z,100741.30
2018-06-21T12:32:20.065Z,100756.67
2018-06-21T12:34:48.701Z,100782.41
2018-06-21T12:37:17.629Z,100818.78
2018-06-21T12:39:46.229Z,100791.09
2018-06-21T12:42:14.878Z,100793.16
2018-06-21T12:44:44.303Z,100787.20
2018-06-21T12:47:12.894Z,100761.66
2018-06-21T12:49:41.946Z,100747.53
2018-06-21T12:52:11.051Z,100745.36
2018-06-21T12:54:40.002Z,100767.52
2018-06-21T12:57:09.069Z,100748.62
2018-06-21T12:59:38.236Z,100750.88
2018-06-21T13:02:07.923Z,100756.87
2018-06-21T13:04:36.558Z,100760.16
2018-06-21T13:07:05.451Z,100780.48
2018-06-21T13:09:45.102Z,100787.26
2018-06-21T13:12:28.540Z,100775.07
2018-06-21T13:14:57.435Z,100780.64
2018-06-21T13:17:27.022Z,100761.16
2018-06-21T13:19:56.685Z,100751.52
2018-06-21T13:22:27.402Z,100757.36
2018-06-21T13:24:56.075Z,100765.80
2018-06-21T13:27:24.921Z,100765.99
2018-06-21T13:29:53.841Z,100760.51
2018-06-21T13:32:22.509Z,100764.38
2018-06-21T13:34:51.242Z,100765.90
2018-06-21T13:37:20.228Z,100769.37
2018-06-21T13:39:49.490Z,100766.73
2018-06-21T13:42:18.448Z,100752.01
2018-06-21T13:44:47.432Z,100757.68
2018-06-21T13:47:16.261Z,100766.25
2018-06-21T13:49:44.917Z,100786.09
2018-06-21T13:52:13.562Z,100784.78
2018-06-21T13:54:42.574Z,100809.81
2018-06-21T13:57:11.512Z,100815.00
2018-06-21T13:59:40.199Z,100836.22
2018-06-21T14:02:08.868Z,100837.02
2018-06-21T14:04:38.082Z,100837.86
2018-06-21T14:07:06.762Z,100860.22
2018-06-21T14:09:36.020Z,100845.80
2018-06-21T14:12:04.906Z,100860.66
2018-06-21T14:14:33.596Z,100857.98
2018-06-21T14:17:02.361Z,100871.31
2018-06-21T14:19:31.099Z,100874.09
2018-06-21T14:22:00.278Z,100889.48
2018-06-21T14:24:29.181Z,100887.81
2018-06-21T14:26:57.849Z,100887.98
2018-06-21T14:29:26.661Z,100889.25
2018-06-21T14:31:58.217Z,100890.69
2018-06-21T14:34:26.870Z,100891.41
2018-06-21T14:36:55.509Z,100872.81
2018-06-21T14:39:24.147Z,100879.92
2018-06-21T14:41:52.784Z,100879.09
2018-06-21T14:44:21.485Z,100882.89
2018-06-21T14:46:50.148Z,100882.30
2018-06-21T14:49:18.758Z,100884.19
2018-06-21T14:51:47.497Z,100876.95
2018-06-21T14:54:16.225Z,100872.35
2018-06-21T14:56:45.943Z,100883.43
2018-06-21T14:59:14.748Z,100871.00
2018-06-21T15:01:43.745Z,100875.89
2018-06-21T15:04:12.404Z,100873.18
2018-06-21T15:06:42.471Z,100863.88
2018-06-21T15:09:12.827Z,100878.07
2018-06-21T15:11:41.585Z,100876.19
2018-06-21T15:14:10.174Z,100893.63
2018-06-21T15:16:39.282Z,100868.48
2018-06-21T15:19:07.973Z,100868.34
2018-06-21T15:21:36.956Z,100869.83
2018-06-21T15:24:06.470Z,100868.84
2018-06-21T15:26:35.149Z,100864.70
2018-06-21T15:29:03.830Z,100869.59
2018-06-21T15:31:32.685Z,100877.17
2018-06-21T15:34:03.080Z,100880.63
2018-06-21T15:36:33.198Z,100864.58
2018-06-21T15:39:12.500Z,100876.30
2018-06-21T15:41:41.314Z,100866.02
2018-06-21T15:44:11.030Z,100876.41
2018-06-21T15:46:39.923Z,100870.98
2018-06-21T15:49:08.613Z,100871.94
2018-06-21T15:51:38.653Z,100878.54
2018-06-21T15:54:07.589Z,100885.25
2018-06-21T15:56:36.794Z,100892.85
2018-06-21T15:59:05.473Z,100868.09
2018-06-21T16:01:34.287Z,100883.69
2018-06-21T16:04:02.919Z,100896.27
2018-06-21T16:06:31.738Z,100897.78
2018-06-21T16:09:00.565Z,100901.69
2018-06-21T16:11:29.211Z,100902.69
2018-06-21T16:13:58.529Z,100904.70
2018-06-21T16:16:27.417Z,100911.98
2018-06-21T16:18:56.284Z,100907.83
2018-06-21T16:21:25.721Z,100914.87
2018-06-21T16:23:54.768Z,100925.81
2018-06-21T16:26:25.282Z,100936.73
2018-06-21T16:28:54.618Z,100937.80
2018-06-21T16:31:24.482Z,100952.33
2018-06-21T16:33:53.177Z,100942.34
2018-06-21T16:36:21.986Z,100949.63
2018-06-21T16:38:51.052Z,100940.98
2018-06-21T16:41:20.777Z,100961.88
2018-06-21T16:43:49.703Z,100965.23
2018-06-21T16:46:18.676Z,100951.14
2018-06-21T16:48:47.375Z,100948.45
2018-06-21T16:51:16.553Z,100963.26
2018-06-21T16:53:45.173Z,100969.00
2018-06-21T16:56:13.846Z,100971.28
2018-06-21T16:58:42.593Z,100967.12
2018-06-21T17:01:11.257Z,100970.53
2018-06-21T17:03:40.822Z,100971.28
2018-06-21T17:06:09.576Z,100977.33
2018-06-21T17:08:38.491Z,100976.64
2018-06-21T17:11:07.355Z,100980.49
2018-06-21T17:13:38.955Z,100992.66
2018-06-21T17:16:07.790Z,100994.14
2018-06-21T17:18:36.947Z,100998.51
2018-06-21T17:21:05.859Z,100993.70
2018-06-21T17:23:34.673Z,101002.56
2018-06-21T17:26:03.706Z,100999.86
2018-06-21T17:28:33.209Z,101004.27
2018-06-21T17:31:04.279Z,100999.86
2018-06-21T17:33:34.037Z,101019.83
2018-06-21T17:36:04.412Z,101011.11
2018-06-21T17:38:33.305Z,101016.23
2018-06-21T17:41:02.437Z,101013.05
2018-06-21T17:43:31.764Z,101017.13
2018-06-21T17:46:00.788Z,101022.18
2018-06-21T17:48:29.584Z,101027.56
2018-06-21T17:50:58.941Z,101027.35
2018-06-21T17:53:27.562Z,101034.00
2018-06-21T17:55:56.402Z,101026.69
2018-06-21T17:58:26.323Z,101036.45
2018-06-21T18:00:55.039Z,101042.38
2018-06-21T18:03:24.535Z,101036.66
2018-06-21T18:05:53.755Z,101036.10
2018-06-21T18:08:25.454Z,101034.28
2018-06-21T18:10:54.207Z,101042.57
2018-06-21T18:13:22.976Z,101038.52
2018-06-21T18:15:51.767Z,101041.85
2018-06-21T18:18:20.500Z,101045.16
2018-06-21T18:20:50.158Z,101043.39
2018-06-21T18:23:19.193Z,101043.16
2018-06-21T18:25:47.966Z,101046.51
2018-06-21T18:28:16.760Z,101047.80
2018-06-21T18:30:45.480Z,101057.91
2018-06-21T18:33:14.273Z,101054.98
2018-06-21T18:35:43.854Z,101059.56
2018-06-21T18:38:12.754Z,101061.66
2018-06-21T18:40:42.336Z,101068.22
2018-06-21T18:43:11.072Z,101072.34
2018-06-21T18:45:40.390Z,101076.42
2018-06-21T18:48:09.925Z,101080.26
2018-06-21T18:50:38.702Z,101086.55
2018-06-21T18:53:13.750Z,101086.11
2018-06-21T18:55:42.709Z,101083.20
2018-06-21T18:58:11.336Z,101083.56
2018-06-21T19:00:40.710Z,101110.80
2018-06-21T19:03:09.424Z,101102.48
2018-06-21T19:05:38.503Z,101114.05
2018-06-21T19:08:12.426Z,101120.88
2018-06-21T19:10:46.794Z,101120.05
2018-06-21T19:13:15.467Z,101130.94
2018-06-21T19:15:44.135Z,101127.72
2018-06-21T19:18:12.767Z,101131.25
2018-06-21T19:20:42.342Z,101139.55
2018-06-21T19:23:12.084Z,101138.73
2018-06-21T19:25:40.691Z,101146.30
2018-06-21T19:28:09.586Z,101141.43
2018-06-21T19:30:38.462Z,101155.05
2018-06-21T19:33:07.477Z,101157.14
2018-06-21T19:35:36.138Z,101167.91
2018-06-21T19:38:05.121Z,101165.73
2018-06-21T19:40:33.816Z,101169.66
2018-06-21T19:43:02.600Z,101165.48
2018-06-21T19:45:31.999Z,101172.65
2018-06-21T19:48:01.041Z,101177.09
2018-06-21T19:50:30.101Z,101169.13
2018-06-21T19:52:58.794Z,101174.36
2018-06-21T19:55:27.419Z,101173.66
2018-06-21T19:57:56.094Z,101180.65
2018-06-21T20:00:24.920Z,101184.83
2018-06-21T20:03:00.523Z,101185.78
2018-06-21T20:05:30.092Z,101187.53
2018-06-21T20:07:59.466Z,101186.19
2018-06-21T20:10:28.310Z,101186.97
2018-06-21T20:12:57.022Z,101183.25
2018-06-21T20:15:25.997Z,101184.49
2018-06-21T20:17:54.622Z,101190.87
2018-06-21T20:20:28.413Z,101192.70
2018-06-21T20:22:57.129Z,101197.75
2018-06-21T20:25:25.754Z,101198.73
2018-06-21T20:27:54.404Z,101211.66
2018-06-21T20:30:23.067Z,101215.95
2018-06-21T20:32:51.650Z,101218.88
2018-06-21T20:35:20.302Z,101222.35
2018-06-21T20:37:49.198Z,101221.46
2018-06-21T20:40:17.884Z,101225.44
2018-06-21T20:42:46.535Z,101233.64
2018-06-21T20:45:15.182Z,101222.91
2018-06-21T20:47:44.223Z,101231.30
2018-06-21T20:50:12.954Z,101226.39
2018-06-21T20:52:42.448Z,101230.32
2018-06-21T20:55:11.072Z,101232.25
2018-06-21T20:57:40.000Z,101222.67
2018-06-21T21:00:08.657Z,101233.97
2018-06-21T21:02:37.537Z,101227.31
2018-06-21T21:05:08.053Z,101236.14
2018-06-21T21:07:37.212Z,101230.77
2018-06-21T21:10:07.723Z,101227.11
2018-06-21T21:12:36.669Z,101227.77
2018-06-21T21:15:06.672Z,101237.72
2018-06-21T21:17:35.874Z,101229.52
2018-06-21T21:20:05.590Z,101230.88
2018-06-21T21:22:35.009Z,101229.84
2018-06-21T21:25:03.689Z,101231.39
2018-06-21T21:27:32.440Z,101223.77
2018-06-21T21:30:01.123Z,101228.00
2018-06-21T21:32:29.782Z,101229.55
2018-06-21T21:34:59.314Z,101224.39
2018-06-21T21:37:28.552Z,101224.39
2018-06-21T21:40:01.092Z,101215.30
2018-06-21T21:42:30.768Z,101215.49
2018-06-21T21:44:59.782Z,101216.37
2018-06-21T21:47:28.454Z,101220.25
2018-06-21T21:49:57.461Z,101211.15
2018-06-21T21:52:26.395Z,101214.92
2018-06-21T21:54:56.694Z,101222.63
2018-06-21T21:57:25.625Z,101211.32
2018-06-21T21:59:54.821Z,101213.83
2018-06-21T22:02:23.684Z,101215.85
2018-06-21T22:04:52.825Z,101217.87
2018-06-21T22:07:21.450Z,101215.67
2018-06-21T22:09:50.512Z,101214.59
2018-06-21T22:12:21.033Z,101220.77
2018-06-21T22:14:50.684Z,101213.92
2018-06-21T22:17:19.514Z,101216.50
2018-06-21T22:19:48.161Z,101219.19
2018-06-21T22:22:16.768Z,101224.13
2018-06-21T22:24:45.728Z,101222.81
2018-06-21T22:27:15.013Z,101215.93
2018-06-21T22:29:43.983Z,101221.72
2018-06-21T22:32:12.946Z,101223.51
2018-06-21T22:34:41.607Z,101221.66
2018-06-21T22:37:10.260Z,101222.93
2018-06-21T22:39:39.244Z,101220.70
2018-06-21T22:42:07.882Z,101218.17
2018-06-21T22:44:36.775Z,101218.92
2018-06-21T22:47:05.386Z,101222.44
2018-06-21T22:49:34.401Z,101219.45
2018-06-21T22:52:03.139Z,101211.83
2018-06-21T22:54:31.964Z,101209.66
2018-06-21T22:57:00.722Z,101217.99
2018-06-21T22:59:29.804Z,101215.44
2018-06-21T23:01:58.420Z,101207.37
2018-06-21T23:04:27.196Z,101221.44
2018-06-21T23:06:55.870Z,101222.12
2018-06-21T23:09:24.642Z,101220.13
2018-06-21T23:11:53.669Z,101217.80
2018-06-21T23:14:22.606Z,101215.80
2018-06-21T23:16:53.415Z,101214.34
2018-06-21T23:19:31.874Z,101212.03
2018-06-21T23:22:01.358Z,101216.03
2018-06-21T23:24:30.056Z,101221.10
2018-06-21T23:26:58.722Z,101224.08
2018-06-21T23:29:28.018Z,101220.45
2018-06-21T23:31:56.653Z,101204.99
2018-06-21T23:34:25.271Z,101207.20
2018-06-21T23:36:54.194Z,101199.57
2018-06-21T23:39:22.822Z,101198.92
2018-06-21T23:41:51.425Z,101200.19
2018-06-21T23:44:26.926Z,101200.78
2018-06-21T23:46:55.522Z,101204.11
2018-06-21T23:49:24.134Z,101208.91
2018-06-21T23:51:52.757Z,101202.91
2018-06-21T23:54:21.381Z,101207.60
2018-06-21T23:56:49.974Z,101205.47
2018-06-21T23:59:19.347Z,101209.63
